Terminal Aerodrome Forecast
Issued by NWS St Louis, MO

Home | Current Version | Previous Version | Text Only | Print | Product List | Glossary On
Versions: 1 2 3 4 5 6 7 8 9 10 11 12 13 14 15 16
000
FTUS43 KLSX 111603 AAA
TAFCOU
TAF AMD
KCOU 111603Z 1116/1212 25012G20KT P6SM SCT150
     FM111700 27015G24KT P6SM SCT150
     FM112100 30019G33KT P6SM BKN045
     FM120400 32015G27KT P6SM OVC025
     FM120700 33015G26KT P6SM SCT035=

USA.gov is the U.S. government's official web portal to all federal, state and local government web resources and services.